createdAt,value
2022-12-18T00:00:13.780Z,-3.97
2022-12-18T00:02:42.195Z,-3.93
2022-12-18T00:05:11.048Z,-3.94
2022-12-18T00:07:39.691Z,-3.98
2022-12-18T00:10:09.862Z,-3.95
2022-12-18T00:12:38.321Z,-3.96
2022-12-18T00:15:09.421Z,-3.98
2022-12-18T00:17:37.702Z,-3.91
2022-12-18T00:20:07.295Z,-3.87
2022-12-18T00:22:35.680Z,-3.83
2022-12-18T00:25:04.097Z,-3.83
2022-12-18T00:27:32.407Z,-3.81
2022-12-18T00:30:00.677Z,-3.79
2022-12-18T00:32:30.351Z,-3.76
2022-12-18T00:34:58.826Z,-3.75
2022-12-18T00:37:27.112Z,-3.71
2022-12-18T00:39:55.433Z,-3.70
2022-12-18T00:42:41.369Z,-3.69
2022-12-18T00:45:13.036Z,-3.67
2022-12-18T00:47:43.024Z,-3.63
2022-12-18T00:50:12.256Z,-3.61
2022-12-18T00:52:41.836Z,-3.62
2022-12-18T00:55:10.522Z,-3.62
2022-12-18T00:57:38.883Z,-3.62
2022-12-18T01:00:11.530Z,-3.62
2022-12-18T01:02:40.413Z,-3.61
2022-12-18T01:05:11.688Z,-3.59
2022-12-18T01:07:40.279Z,-3.56
2022-12-18T01:10:11.740Z,-3.54
2022-12-18T01:12:40.604Z,-3.51
2022-12-18T01:15:10.244Z,-3.48
2022-12-18T01:17:38.678Z,-3.47
2022-12-18T01:20:11.465Z,-3.43
2022-12-18T01:22:39.771Z,-3.43
2022-12-18T01:25:09.176Z,-3.47
2022-12-18T01:27:37.478Z,-3.46
2022-12-18T01:30:07.275Z,-3.47
2022-12-18T01:32:35.860Z,-3.48
2022-12-18T01:35:04.385Z,-3.46
2022-12-18T01:37:34.307Z,-3.46
2022-12-18T01:40:03.347Z,-3.48
2022-12-18T01:42:31.802Z,-3.48
2022-12-18T01:45:07.929Z,-3.52
2022-12-18T01:47:41.078Z,-3.51
2022-12-18T01:50:15.224Z,-3.49
2022-12-18T01:52:50.900Z,-3.50
2022-12-18T01:55:24.491Z,-3.51
2022-12-18T01:57:56.948Z,-3.49
2022-12-18T02:00:27.484Z,-3.49
2022-12-18T02:02:56.407Z,-3.48
2022-12-18T02:05:38.641Z,-3.50
2022-12-18T02:08:17.185Z,-3.47
2022-12-18T02:10:56.369Z,-3.45
2022-12-18T02:13:38.857Z,-3.44
2022-12-18T02:16:15.992Z,-3.40
2022-12-18T02:18:49.790Z,-3.40
2022-12-18T02:21:30.499Z,-3.37
2022-12-18T02:24:19.982Z,-3.36
2022-12-18T02:26:53.080Z,-3.40
2022-12-18T02:29:28.478Z,-3.44
2022-12-18T02:32:00.591Z,-3.49
2022-12-18T02:34:33.653Z,-3.50
2022-12-18T02:37:06.751Z,-3.48
2022-12-18T02:39:37.650Z,-3.45
2022-12-18T02:42:09.088Z,-3.42
2022-12-18T02:44:44.501Z,-3.43
2022-12-18T02:47:14.546Z,-3.45
2022-12-18T02:49:55.765Z,-3.46
2022-12-18T02:52:33.726Z,-3.47
2022-12-18T02:55:18.015Z,-3.46
2022-12-18T02:57:55.170Z,-3.43
2022-12-18T03:00:30.767Z,-3.41
2022-12-18T03:03:07.623Z,-3.41
2022-12-18T03:05:40.832Z,-3.41
2022-12-18T03:08:14.604Z,-3.41
2022-12-18T03:10:48.074Z,-3.41
2022-12-18T03:13:24.157Z,-3.41
2022-12-18T03:15:57.058Z,-3.43
2022-12-18T03:18:31.916Z,-3.46
2022-12-18T03:21:05.881Z,-3.51
2022-12-18T03:23:41.750Z,-3.51
2022-12-18T03:26:15.281Z,-3.53
2022-12-18T03:28:53.372Z,-3.57
2022-12-18T03:31:25.049Z,-3.61
2022-12-18T03:33:57.392Z,-3.63
2022-12-18T03:36:26.906Z,-3.66
2022-12-18T03:38:55.434Z,-3.69
2022-12-18T03:41:32.113Z,-3.70
2022-12-18T03:44:08.887Z,-3.72
2022-12-18T03:46:49.499Z,-3.72
2022-12-18T03:49:26.120Z,-3.71
2022-12-18T03:52:00.136Z,-3.70
2022-12-18T03:54:30.256Z,-3.68
2022-12-18T03:57:05.854Z,-3.66
2022-12-18T03:59:37.597Z,-3.64
2022-12-18T04:02:09.158Z,-3.60
2022-12-18T04:04:39.477Z,-3.56
2022-12-18T04:07:09.032Z,-3.51
2022-12-18T04:09:38.761Z,-3.50
2022-12-18T04:12:07.423Z,-3.49
2022-12-18T04:14:37.472Z,-3.49
2022-12-18T04:17:06.079Z,-3.52
2022-12-18T04:19:34.452Z,-3.52
2022-12-18T04:22:02.709Z,-3.57
2022-12-18T04:24:31.068Z,-3.59
2022-12-18T04:26:59.381Z,-3.61
2022-12-18T04:29:27.694Z,-3.65
2022-12-18T04:31:57.375Z,-3.70
2022-12-18T04:34:25.744Z,-3.70
2022-12-18T04:36:54.124Z,-3.74
2022-12-18T04:39:22.505Z,-3.78
2022-12-18T04:41:50.864Z,-3.77
2022-12-18T04:44:19.815Z,-3.81
2022-12-18T04:46:48.169Z,-3.84
2022-12-18T04:49:17.902Z,-3.89
2022-12-18T04:51:46.196Z,-3.95
2022-12-18T04:54:14.521Z,-3.98
2022-12-18T04:56:42.893Z,-4.04
2022-12-18T04:59:11.338Z,-4.10
2022-12-18T05:01:39.919Z,-4.14
2022-12-18T05:04:08.451Z,-4.14
2022-12-18T05:06:38.326Z,-4.17
2022-12-18T05:09:06.723Z,-4.18
2022-12-18T05:11:35.011Z,-4.21
2022-12-18T05:14:03.401Z,-4.22
2022-12-18T05:16:31.815Z,-4.25
2022-12-18T05:19:00.155Z,-4.27
2022-12-18T05:21:28.538Z,-4.29
2022-12-18T05:23:58.170Z,-4.32
2022-12-18T05:26:26.524Z,-4.35
2022-12-18T05:28:56.910Z,-4.39
2022-12-18T05:31:25.606Z,-4.41
2022-12-18T05:33:54.069Z,-4.44
2022-12-18T05:36:22.465Z,-4.48
2022-12-18T05:38:51.210Z,-4.49
2022-12-18T05:41:20.913Z,-4.54
2022-12-18T05:43:49.415Z,-4.57
2022-12-18T05:46:19.644Z,-4.64
2022-12-18T05:48:49.206Z,-4.71
2022-12-18T05:51:20.545Z,-4.70
2022-12-18T05:53:49.235Z,-4.66
2022-12-18T05:56:22.244Z,-4.65
2022-12-18T05:58:54.169Z,-4.62
2022-12-18T06:01:26.451Z,-4.61
2022-12-18T06:03:55.086Z,-4.59
2022-12-18T06:06:26.789Z,-4.58
2022-12-18T06:08:56.398Z,-4.56
2022-12-18T06:11:28.625Z,-4.52
2022-12-18T06:13:59.548Z,-4.47
2022-12-18T06:16:30.365Z,-4.40
2022-12-18T06:18:59.725Z,-4.36
2022-12-18T06:21:28.974Z,-4.32
2022-12-18T06:23:57.758Z,-4.32
2022-12-18T06:26:28.601Z,-4.27
2022-12-18T06:28:57.268Z,-4.23
2022-12-18T06:31:26.034Z,-4.21
2022-12-18T06:33:54.459Z,-4.22
2022-12-18T06:36:23.285Z,-4.21
2022-12-18T06:38:51.822Z,-4.21
2022-12-18T06:41:22.370Z,-4.18
2022-12-18T06:43:56.796Z,-4.13
2022-12-18T06:46:28.050Z,-4.13
2022-12-18T06:48:56.455Z,-4.15
2022-12-18T06:51:27.323Z,-4.19
2022-12-18T06:53:55.987Z,-4.17
2022-12-18T06:56:24.690Z,-4.16
2022-12-18T06:58:54.587Z,-4.15
2022-12-18T07:01:23.700Z,-4.21
2022-12-18T07:03:55.844Z,-4.20
2022-12-18T07:06:26.942Z,-4.19
2022-12-18T07:08:57.138Z,-4.20
2022-12-18T07:11:25.793Z,-4.19
2022-12-18T07:13:55.976Z,-4.17
2022-12-18T07:16:25.927Z,-4.14
2022-12-18T07:18:54.983Z,-4.10
2022-12-18T07:21:24.678Z,-4.09
2022-12-18T07:23:53.341Z,-4.02
2022-12-18T07:26:23.854Z,-3.99
2022-12-18T07:28:52.439Z,-3.98
2022-12-18T07:31:23.902Z,-3.96
2022-12-18T07:33:53.614Z,-3.96
2022-12-18T07:36:25.517Z,-3.92
2022-12-18T07:38:54.536Z,-3.85
2022-12-18T07:41:23.458Z,-3.80
2022-12-18T07:43:52.337Z,-3.77
2022-12-18T07:46:22.414Z,-3.75
2022-12-18T07:48:50.902Z,-3.75
2022-12-18T07:51:20.743Z,-3.72
2022-12-18T07:53:52.160Z,-3.71
2022-12-18T07:56:27.736Z,-3.71
2022-12-18T07:58:57.316Z,-3.72
2022-12-18T08:01:27.598Z,-3.70
2022-12-18T08:03:56.285Z,-3.68
2022-12-18T08:06:24.962Z,-3.70
2022-12-18T08:08:54.878Z,-3.65
2022-12-18T08:11:24.788Z,-3.59
2022-12-18T08:13:53.329Z,-3.52
2022-12-18T08:16:23.889Z,-3.42
2022-12-18T08:18:54.842Z,-3.31
2022-12-18T08:21:26.301Z,-3.26
2022-12-18T08:23:56.857Z,-3.25
2022-12-18T08:26:26.157Z,-3.23
2022-12-18T08:28:56.944Z,-3.19
2022-12-18T08:31:26.581Z,-3.17
2022-12-18T08:33:57.073Z,-3.12
2022-12-18T08:36:27.468Z,-3.08
2022-12-18T08:38:56.221Z,-3.06
2022-12-18T08:41:25.321Z,-3.05
2022-12-18T08:44:11.567Z,-3.04
2022-12-18T08:46:42.558Z,-3.05
2022-12-18T08:49:13.587Z,-3.10
2022-12-18T08:51:42.802Z,-3.15
2022-12-18T08:54:14.684Z,-3.19
2022-12-18T08:56:43.013Z,-3.24
2022-12-18T08:59:17.549Z,-3.28
2022-12-18T09:01:48.744Z,-3.25
2022-12-18T09:04:19.635Z,-3.18
2022-12-18T09:06:47.938Z,-3.12
2022-12-18T09:09:16.270Z,-3.09
2022-12-18T09:11:44.674Z,-3.07
2022-12-18T09:14:14.488Z,-3.03
2022-12-18T09:16:42.948Z,-3.01
2022-12-18T09:19:12.079Z,-2.98
2022-12-18T09:21:46.289Z,-2.97
2022-12-18T09:24:17.459Z,-2.94
2022-12-18T09:26:47.386Z,-2.93
2022-12-18T09:29:16.916Z,-2.91
2022-12-18T09:31:47.496Z,-2.89
2022-12-18T09:34:15.782Z,-2.80
2022-12-18T09:36:47.596Z,-2.68
2022-12-18T09:39:16.324Z,-2.57
2022-12-18T09:41:51.051Z,-2.55
2022-12-18T09:44:28.256Z,-2.59
2022-12-18T09:47:08.133Z,-2.62
2022-12-18T09:49:44.632Z,-2.60
2022-12-18T09:52:21.603Z,-2.61
2022-12-18T09:54:56.643Z,-2.62
2022-12-18T09:57:26.678Z,-2.65
2022-12-18T10:00:01.226Z,-2.64
2022-12-18T10:02:33.507Z,-2.54
2022-12-18T10:05:10.067Z,-2.48
2022-12-18T10:07:52.345Z,-2.50
2022-12-18T10:10:39.654Z,-2.58
2022-12-18T10:13:21.892Z,-2.62
2022-12-18T10:16:11.199Z,-2.65
2022-12-18T10:19:02.461Z,-2.69
2022-12-18T10:21:41.748Z,-2.68
2022-12-18T10:24:22.863Z,-2.68
2022-12-18T10:26:51.139Z,-2.67
2022-12-18T10:29:19.621Z,-2.66
2022-12-18T10:31:47.999Z,-2.72
2022-12-18T10:34:16.736Z,-2.69
2022-12-18T10:36:45.185Z,-2.67
2022-12-18T10:39:25.971Z,-2.67
2022-12-18T10:42:11.025Z,-2.63
2022-12-18T10:44:39.733Z,-2.62
2022-12-18T10:47:17.406Z,-2.67
2022-12-18T10:49:51.943Z,-2.67
2022-12-18T10:52:23.746Z,-2.68
2022-12-18T10:54:59.219Z,-2.67
2022-12-18T10:57:38.039Z,-2.62
2022-12-18T11:00:30.466Z,-2.59
2022-12-18T11:02:59.884Z,-2.53
2022-12-18T11:05:32.422Z,-2.51
2022-12-18T11:08:02.916Z,-2.52
2022-12-18T11:10:35.643Z,-2.51
2022-12-18T11:13:22.819Z,-2.40
2022-12-18T11:15:51.710Z,-2.34
2022-12-18T11:18:27.277Z,-2.29
2022-12-18T11:20:59.646Z,-2.25
2022-12-18T11:23:29.313Z,-2.20
2022-12-18T11:26:02.778Z,-2.13
2022-12-18T11:28:43.313Z,-2.08
2022-12-18T11:31:28.610Z,-2.01
2022-12-18T11:34:28.658Z,-1.90
2022-12-18T11:37:00.181Z,-1.85
2022-12-18T11:39:36.223Z,-1.77
2022-12-18T11:42:14.626Z,-1.73
2022-12-18T11:44:50.558Z,-1.69
2022-12-18T11:47:30.727Z,-1.63
2022-12-18T11:50:03.758Z,-1.58
2022-12-18T11:52:40.253Z,-1.52
2022-12-18T11:55:16.311Z,-1.42
2022-12-18T11:57:57.521Z,-1.33
2022-12-18T12:00:26.956Z,-1.23
2022-12-18T12:03:42.045Z,-1.06
2022-12-18T12:06:17.252Z,-0.91
2022-12-18T12:09:07.080Z,-0.80
2022-12-18T12:11:52.271Z,-0.63
2022-12-18T12:14:44.955Z,-0.54
2022-12-18T12:17:24.361Z,-0.48
2022-12-18T12:20:05.198Z,-0.49
2022-12-18T12:22:45.545Z,-0.45
2022-12-18T12:25:35.447Z,-0.34
2022-12-18T12:28:21.939Z,-0.35
2022-12-18T12:31:04.756Z,-0.37
2022-12-18T12:33:45.438Z,-0.40
2022-12-18T12:36:25.577Z,-0.45
2022-12-18T12:38:59.762Z,-0.56
2022-12-18T12:41:51.165Z,-0.68
2022-12-18T12:44:26.356Z,-0.82
2022-12-18T12:47:03.469Z,-0.92
2022-12-18T12:49:40.426Z,-1.00
2022-12-18T12:52:18.733Z,-1.05
2022-12-18T12:54:49.314Z,-1.15
2022-12-18T12:57:25.048Z,-1.25
2022-12-18T13:00:05.178Z,-1.40
2022-12-18T13:02:48.995Z,-1.51
2022-12-18T13:05:26.702Z,-1.56
2022-12-18T13:08:00.325Z,-1.59
2022-12-18T13:10:36.187Z,-1.61
2022-12-18T13:13:09.265Z,-1.65
2022-12-18T13:15:46.146Z,-1.73
2022-12-18T13:18:21.545Z,-1.73
2022-12-18T13:20:56.494Z,-1.77
2022-12-18T13:23:37.333Z,-1.83
2022-12-18T13:26:35.714Z,-1.89
2022-12-18T13:29:07.278Z,-1.94
2022-12-18T13:32:23.056Z,-1.99
2022-12-18T13:35:42.243Z,-2.09
2022-12-18T13:38:24.891Z,-2.14
2022-12-18T13:40:58.963Z,-2.21
2022-12-18T13:43:43.912Z,-2.27
2022-12-18T13:46:25.824Z,-2.34
2022-12-18T13:49:00.456Z,-2.39
2022-12-18T13:51:35.197Z,-2.45
2022-12-18T13:54:15.907Z,-2.44
2022-12-18T13:56:48.081Z,-2.51
2022-12-18T13:59:24.796Z,-2.57
2022-12-18T14:01:57.260Z,-2.59
2022-12-18T14:04:29.210Z,-2.62
2022-12-18T14:07:13.903Z,-2.68
2022-12-18T14:09:47.567Z,-2.76
2022-12-18T14:12:38.293Z,-2.81
2022-12-18T14:15:17.273Z,-2.83
2022-12-18T14:17:45.984Z,-2.85
2022-12-18T14:20:17.369Z,-2.88
2022-12-18T14:22:48.815Z,-2.93
2022-12-18T14:25:23.178Z,-2.89
2022-12-18T14:28:05.404Z,-2.92
2022-12-18T14:30:37.824Z,-2.89
2022-12-18T14:33:11.012Z,-2.92
2022-12-18T14:35:43.037Z,-2.96
2022-12-18T14:38:27.272Z,-2.98
2022-12-18T14:41:00.029Z,-3.00
2022-12-18T14:43:30.654Z,-3.01
2022-12-18T14:46:07.805Z,-2.98
2022-12-18T14:48:42.177Z,-2.98
2022-12-18T14:51:20.640Z,-2.98
2022-12-18T14:53:55.951Z,-3.01
2022-12-18T14:56:28.262Z,-3.04
2022-12-18T14:58:59.081Z,-3.04
2022-12-18T15:01:32.148Z,-3.00
2022-12-18T15:04:02.574Z,-3.00
2022-12-18T15:06:37.273Z,-3.01
2022-12-18T15:09:24.216Z,-3.00
2022-12-18T15:11:58.969Z,-2.99
2022-12-18T15:14:37.071Z,-3.00
2022-12-18T15:17:08.823Z,-3.01
2022-12-18T15:19:42.826Z,-3.02
2022-12-18T15:22:30.509Z,-3.00
2022-12-18T15:25:04.051Z,-3.01
2022-12-18T15:27:36.675Z,-3.04
2022-12-18T15:30:23.780Z,-3.05
2022-12-18T15:32:54.131Z,-3.09
2022-12-18T15:35:25.654Z,-3.13
2022-12-18T15:37:55.146Z,-3.13
2022-12-18T15:40:26.378Z,-3.15
2022-12-18T15:43:14.963Z,-3.13
2022-12-18T15:45:43.363Z,-3.13
2022-12-18T15:48:22.418Z,-3.15
2022-12-18T15:50:52.635Z,-3.16
2022-12-18T15:53:21.838Z,-3.15
2022-12-18T15:56:09.618Z,-3.14
2022-12-18T15:58:39.255Z,-3.18
2022-12-18T16:01:09.878Z,-3.24
2022-12-18T16:03:39.040Z,-3.27
2022-12-18T16:06:08.660Z,-3.26
2022-12-18T16:08:37.196Z,-3.25
2022-12-18T16:11:19.102Z,-3.23
2022-12-18T16:13:48.599Z,-3.23
2022-12-18T16:16:17.433Z,-3.24
2022-12-18T16:18:45.906Z,-3.26
2022-12-18T16:21:14.503Z,-3.27
2022-12-18T16:23:43.153Z,-3.30
2022-12-18T16:26:13.207Z,-3.33
2022-12-18T16:28:48.251Z,-3.30
2022-12-18T16:31:17.218Z,-3.30
2022-12-18T16:33:45.589Z,-3.32
2022-12-18T16:36:14.277Z,-3.30
2022-12-18T16:38:43.114Z,-3.34
2022-12-18T16:41:33.423Z,-3.37
2022-12-18T16:44:02.319Z,-3.43
2022-12-18T16:46:31.432Z,-3.45
2022-12-18T16:49:00.867Z,-3.44
2022-12-18T16:51:30.092Z,-3.44
2022-12-18T16:53:58.899Z,-3.44
2022-12-18T16:56:29.513Z,-3.48
2022-12-18T16:59:00.390Z,-3.46
2022-12-18T17:01:31.241Z,-3.45
2022-12-18T17:04:02.410Z,-3.41
2022-12-18T17:06:34.014Z,-3.38
2022-12-18T17:09:05.495Z,-3.40
2022-12-18T17:11:37.012Z,-3.41
2022-12-18T17:14:09.467Z,-3.40
2022-12-18T17:16:37.946Z,-3.41
2022-12-18T17:19:13.737Z,-3.38
2022-12-18T17:21:45.916Z,-3.38
2022-12-18T17:24:14.516Z,-3.41
2022-12-18T17:26:44.626Z,-3.42
2022-12-18T17:29:17.349Z,-3.47
2022-12-18T17:31:48.520Z,-3.48
2022-12-18T17:34:18.317Z,-3.51
2022-12-18T17:36:46.809Z,-3.56
2022-12-18T17:39:21.547Z,-3.59
2022-12-18T17:41:55.046Z,-3.60
2022-12-18T17:44:24.119Z,-3.57
2022-12-18T17:46:53.396Z,-3.56
2022-12-18T17:49:22.319Z,-3.56
2022-12-18T17:51:51.618Z,-3.56
2022-12-18T17:54:20.200Z,-3.59
2022-12-18T17:56:50.463Z,-3.60
2022-12-18T17:59:18.757Z,-3.62
2022-12-18T18:01:47.385Z,-3.67
2022-12-18T18:04:16.678Z,-3.73
2022-12-18T18:06:45.100Z,-3.75
2022-12-18T18:09:16.587Z,-3.78
2022-12-18T18:12:03.359Z,-3.80
2022-12-18T18:14:33.645Z,-3.86
2022-12-18T18:17:04.719Z,-3.94
2022-12-18T18:19:35.892Z,-3.96
2022-12-18T18:22:04.456Z,-3.99
2022-12-18T18:24:35.365Z,-4.00
2022-12-18T18:27:03.745Z,-3.99
2022-12-18T18:29:33.800Z,-3.99
2022-12-18T18:32:02.406Z,-3.98
2022-12-18T18:34:33.030Z,-4.02
2022-12-18T18:37:01.533Z,-4.06
2022-12-18T18:39:30.202Z,-4.09
2022-12-18T18:41:59.534Z,-4.11
2022-12-18T18:44:28.066Z,-4.18
2022-12-18T18:46:59.657Z,-4.21
2022-12-18T18:49:28.760Z,-4.19
2022-12-18T18:51:59.273Z,-4.20
2022-12-18T18:54:31.589Z,-4.19
2022-12-18T18:59:49.639Z,-4.22
2022-12-18T19:02:21.701Z,-4.28
2022-12-18T19:04:50.396Z,-4.35
2022-12-18T19:07:29.582Z,-4.41
2022-12-18T19:10:03.476Z,-4.46
2022-12-18T19:12:50.329Z,-4.44
2022-12-18T19:15:18.703Z,-4.51
2022-12-18T19:17:48.542Z,-4.56
2022-12-18T19:20:17.859Z,-4.59
2022-12-18T19:22:55.262Z,-4.63
2022-12-18T19:25:40.292Z,-4.58
2022-12-18T19:28:21.262Z,-4.59
2022-12-18T19:30:56.338Z,-4.62
2022-12-18T19:33:42.840Z,-4.63
2022-12-18T19:36:16.002Z,-4.65
2022-12-18T19:38:45.592Z,-4.71
2022-12-18T19:41:15.384Z,-4.75
2022-12-18T19:43:45.147Z,-4.76
2022-12-18T19:46:16.630Z,-4.83
2022-12-18T19:48:48.045Z,-4.90
2022-12-18T19:51:20.079Z,-4.94
2022-12-18T19:53:52.412Z,-4.95
2022-12-18T19:56:27.961Z,-4.96
2022-12-18T19:58:56.789Z,-4.94
2022-12-18T20:01:28.176Z,-4.95
2022-12-18T20:03:59.637Z,-4.93
2022-12-18T20:06:33.977Z,-4.92
2022-12-18T20:09:06.072Z,-4.95
2022-12-18T20:11:39.667Z,-4.97
2022-12-18T20:14:11.458Z,-4.99
2022-12-18T20:16:40.177Z,-4.98
2022-12-18T20:19:13.383Z,-4.97
2022-12-18T20:21:42.792Z,-4.92
2022-12-18T20:24:11.331Z,-4.88
2022-12-18T20:26:40.608Z,-4.86
2022-12-18T20:29:09.211Z,-4.87
2022-12-18T20:31:37.769Z,-4.89
2022-12-18T20:34:09.971Z,-4.90
2022-12-18T20:36:41.095Z,-4.92
2022-12-18T20:39:12.220Z,-4.92
2022-12-18T20:41:43.045Z,-4.94
2022-12-18T20:44:23.663Z,-4.89
2022-12-18T20:46:54.956Z,-4.86
2022-12-18T20:49:28.773Z,-4.85
2022-12-18T20:51:59.557Z,-4.82
2022-12-18T20:54:29.123Z,-4.78
2022-12-18T20:56:58.390Z,-4.81
2022-12-18T20:59:26.886Z,-4.86
2022-12-18T21:01:56.058Z,-4.87
2022-12-18T21:04:27.179Z,-4.88
2022-12-18T21:07:02.121Z,-4.91
2022-12-18T21:09:37.793Z,-4.92
2022-12-18T21:12:30.165Z,-4.92
2022-12-18T21:15:03.128Z,-4.89
2022-12-18T21:17:31.559Z,-4.89
2022-12-18T21:20:17.584Z,-4.92
2022-12-18T21:22:46.826Z,-4.91
2022-12-18T21:25:15.490Z,-4.94
2022-12-18T21:27:44.021Z,-4.94
2022-12-18T21:30:13.625Z,-4.89
2022-12-18T21:32:42.527Z,-4.88
2022-12-18T21:35:11.394Z,-4.88
2022-12-18T21:37:41.225Z,-4.88
2022-12-18T21:40:11.418Z,-4.79
2022-12-18T21:42:57.389Z,-4.79
2022-12-18T21:45:26.247Z,-4.77
2022-12-18T21:47:54.718Z,-4.74
2022-12-18T21:50:23.465Z,-4.74
2022-12-18T21:52:53.233Z,-4.74
2022-12-18T21:55:21.636Z,-4.74
2022-12-18T21:57:50.355Z,-4.82
2022-12-18T22:00:19.843Z,-4.89
2022-12-18T22:03:15.567Z,-4.93
2022-12-18T22:05:37.593Z,-4.95
2022-12-18T22:08:07.885Z,-4.93
2022-12-18T22:10:39.412Z,-4.96
2022-12-18T22:13:09.299Z,-4.98
2022-12-18T22:15:37.824Z,-4.96
2022-12-18T22:18:06.263Z,-4.97
2022-12-18T22:20:34.722Z,-4.97
2022-12-18T22:23:05.648Z,-4.94
2022-12-18T22:25:37.268Z,-4.93
2022-12-18T22:28:25.611Z,-4.89
2022-12-18T22:30:54.877Z,-4.89
2022-12-18T22:33:29.102Z,-4.92
2022-12-18T22:35:57.476Z,-4.92
2022-12-18T22:38:27.489Z,-4.91
2022-12-18T22:40:57.752Z,-4.88
2022-12-18T22:43:26.193Z,-4.85
2022-12-18T22:45:55.471Z,-4.87
2022-12-18T22:48:24.591Z,-4.87
2022-12-18T22:50:53.090Z,-4.94
2022-12-18T22:53:26.783Z,-4.99
2022-12-18T22:56:03.432Z,-4.98
2022-12-18T22:58:31.764Z,-4.96
2022-12-18T23:01:01.500Z,-4.96
2022-12-18T23:03:30.300Z,-4.94
2022-12-18T23:06:05.473Z,-4.94
2022-12-18T23:08:34.463Z,-4.93
2022-12-18T23:11:06.817Z,-4.94
2022-12-18T23:13:36.203Z,-4.95
2022-12-18T23:16:07.823Z,-4.91
2022-12-18T23:18:37.173Z,-4.91
2022-12-18T23:21:07.347Z,-4.92
2022-12-18T23:23:37.672Z,-4.95
2022-12-18T23:26:10.759Z,-4.98
2022-12-18T23:28:40.346Z,-4.99
2022-12-18T23:31:11.759Z,-4.98
2022-12-18T23:33:42.818Z,-4.96
2022-12-18T23:36:13.627Z,-4.95
2022-12-18T23:38:42.594Z,-4.98
2022-12-18T23:41:15.986Z,-5.04
2022-12-18T23:43:44.631Z,-5.13
2022-12-18T23:46:21.275Z,-5.18
2022-12-18T23:48:50.165Z,-5.19
2022-12-18T23:51:23.411Z,-5.20
2022-12-18T23:53:52.098Z,-5.21
2022-12-18T23:56:22.403Z,-5.22
2022-12-18T23:58:52.665Z,-5.23
